Time;durP1;ratioP1;P1;durP2;ratioP2;P2;SDS_P1;SDS_P2;PMS_P1;PMS_P2;Temp;Humidity;BMP_temperature;BMP_pressure;BME280_temperature;BME280_humidity;BME280_pressure;Samples;Min_cycle;Max_cycle;Signal;HPM_P1;HPM_P2
2022/05/18 00:01:49;;;;;;;14.88;7.80;;;;;;;16.64;84.04;101752.31;5061247;28;20033;-70
2022/05/18 00:04:14;;;;;;;11.88;6.68;;;;;;;16.58;83.86;101763.09;5062787;28;20124;-70
2022/05/18 00:06:40;;;;;;;12.00;7.25;;;;;;;16.54;83.76;101761.91;5059794;28;20552;-70
2022/05/18 00:09:05;;;;;;;12.13;7.10;;;;;;;16.52;85.23;101762.09;5061958;28;20480;-70
2022/05/18 00:11:32;;;;;;;10.77;6.60;;;;;;;16.51;85.79;101759.63;5058755;28;20025;-70
2022/05/18 00:13:58;;;;;;;15.60;8.18;;;;;;;16.48;85.02;101765.44;5063399;28;20039;-70
2022/05/18 00:16:25;;;;;;;16.83;6.93;;;;;;;16.44;84.84;101767.72;5063070;28;20066;-70
2022/05/18 00:18:52;;;;;;;9.90;6.65;;;;;;;16.41;85.31;101762.78;5061427;28;20071;-70
2022/05/18 00:21:17;;;;;;;11.00;6.63;;;;;;;16.38;84.43;101763.22;5061953;28;20063;-70
2022/05/18 00:23:44;;;;;;;13.50;8.45;;;;;;;16.37;84.74;101770.47;5061375;28;20112;-70
2022/05/18 00:26:09;;;;;;;13.88;7.28;;;;;;;16.35;85.96;101767.16;5059208;28;20037;-70
2022/05/18 00:28:35;;;;;;;11.48;6.15;;;;;;;16.32;84.75;101770.28;5061086;28;20033;-70
2022/05/18 00:31:01;;;;;;;12.32;7.32;;;;;;;16.27;85.22;101766.53;5061738;28;20033;-70
2022/05/18 00:33:27;;;;;;;10.73;6.13;;;;;;;16.21;85.44;101769.03;5062858;28;20058;-70
2022/05/18 00:35:53;;;;;;;12.90;7.32;;;;;;;16.18;85.77;101774.03;5058182;28;20044;-70
2022/05/18 00:38:18;;;;;;;13.32;7.35;;;;;;;16.18;86.01;101771.34;5064110;28;20029;-70
2022/05/18 00:40:47;;;;;;;10.18;6.55;;;;;;;16.17;86.00;101769.69;5062498;28;20039;-70
2022/05/18 00:43:35;;;;;;;12.35;6.95;;;;;;;16.11;85.60;101768.69;5059951;28;20388;-70
2022/05/18 00:46:05;;;;;;;14.48;6.90;;;;;;;16.14;85.39;101773.63;5059902;28;20465;-70
2022/05/18 00:48:31;;;;;;;16.08;6.97;;;;;;;16.12;85.06;101772.19;5062874;28;20024;-70
2022/05/18 00:51:00;;;;;;;12.27;6.95;;;;;;;16.08;85.43;101777.16;5057861;28;20039;-70
2022/05/18 00:53:30;;;;;;;13.20;6.65;;;;;;;16.05;85.89;101774.88;5061940;28;20029;-70
2022/05/18 00:56:00;;;;;;;13.07;6.93;;;;;;;16.02;85.99;101769.91;5041942;28;20024;-70
2022/05/18 00:58:47;;;;;;;12.68;6.75;;;;;;;16.00;86.09;101767.44;5058926;28;20075;-70
2022/05/18 01:01:12;;;;;;;10.82;7.05;;;;;;;15.98;86.12;101772.22;5061401;28;20499;-70
2022/05/18 01:03:44;;;;;;;14.50;6.82;;;;;;;15.95;86.71;101771.78;5060226;28;20033;-70
2022/05/18 01:06:40;;;;;;;16.20;8.13;;;;;;;15.89;86.18;101778.84;5059981;28;20036;-71
2022/05/18 01:09:19;;;;;;;11.80;7.43;;;;;;;15.83;86.27;101773.50;5062400;28;20543;-70
2022/05/18 01:11:44;;;;;;;11.73;6.90;;;;;;;15.75;86.03;101780.72;5059145;28;20059;-70
2022/05/18 01:14:16;;;;;;;12.60;7.45;;;;;;;15.66;86.23;101779.25;5059139;28;20119;-70
2022/05/18 01:16:42;;;;;;;12.05;6.65;;;;;;;15.59;86.58;101774.91;5059004;28;20035;-70
2022/05/18 01:19:35;;;;;;;11.15;7.00;;;;;;;15.49;86.36;101773.47;5060636;28;20028;-70
2022/05/18 01:22:28;;;;;;;13.77;7.25;;;;;;;15.41;86.52;101779.03;5059531;28;20042;-70
2022/05/18 01:25:35;;;;;;;14.02;7.35;;;;;;;15.31;87.28;101782.13;5061544;28;20028;-70
2022/05/18 01:28:02;;;;;;;13.23;7.32;;;;;;;15.30;88.05;101779.63;5058420;28;20380;-70
2022/05/18 01:30:29;;;;;;;11.55;7.10;;;;;;;15.26;88.46;101773.03;5062250;28;20445;-70
2022/05/18 01:32:57;;;;;;;13.25;7.57;;;;;;;15.25;88.38;101774.06;5059969;28;20024;-70
2022/05/18 01:35:29;;;;;;;11.43;6.72;;;;;;;15.28;88.74;101777.16;5061800;28;20020;-70
2022/05/18 01:37:57;;;;;;;15.68;6.95;;;;;;;15.31;88.73;101784.00;5058658;28;20028;-70
2022/05/18 01:40:45;;;;;;;15.05;7.38;;;;;;;15.34;87.96;101775.50;5058442;28;20031;-70
2022/05/18 01:43:33;;;;;;;13.43;5.90;;;;;;;15.38;87.93;101775.91;5062918;28;20024;-70
2022/05/18 01:46:02;;;;;;;12.98;6.82;;;;;;;15.39;87.67;101782.97;5060214;28;20029;-70
2022/05/18 01:48:33;;;;;;;10.80;6.30;;;;;;;15.39;88.06;101780.28;5058667;28;20032;-70
2022/05/18 01:51:00;;;;;;;11.77;7.20;;;;;;;15.35;87.64;101779.84;5059900;28;20032;-70
2022/05/18 01:53:26;;;;;;;9.73;6.85;;;;;;;15.31;87.94;101782.13;5059451;28;20067;-70
2022/05/18 01:55:52;;;;;;;17.23;7.25;;;;;;;15.27;87.29;101777.38;5062003;28;20027;-70
2022/05/18 01:58:17;;;;;;;13.55;7.07;;;;;;;15.22;87.96;101771.78;5061180;28;20059;-70
2022/05/18 02:00:45;;;;;;;23.77;7.88;;;;;;;15.22;88.38;101774.47;5063188;28;20052;-71
2022/05/18 02:03:12;;;;;;;15.15;9.00;;;;;;;15.19;89.01;101780.25;5058914;28;20029;-70
2022/05/18 02:05:38;;;;;;;10.98;6.97;;;;;;;15.20;89.24;101776.53;5060491;28;20139;-70
2022/05/18 02:08:04;;;;;;;11.40;6.70;;;;;;;15.18;88.92;101778.59;5059687;28;20029;-70
2022/05/18 02:10:30;;;;;;;11.93;7.00;;;;;;;15.16;89.46;101777.97;5060122;28;20029;-70
2022/05/18 02:12:56;;;;;;;16.40;8.00;;;;;;;15.15;89.05;101771.78;5062630;28;20051;-70
2022/05/18 02:15:23;;;;;;;13.88;6.82;;;;;;;15.16;88.80;101784.16;5059238;28;20032;-70
2022/05/18 02:17:50;;;;;;;12.45;8.13;;;;;;;15.18;89.95;101778.59;5055422;28;20029;-70
2022/05/18 02:20:16;;;;;;;12.32;7.57;;;;;;;15.17;89.15;101783.16;5059428;28;20562;-70
2022/05/18 02:22:41;;;;;;;12.40;7.43;;;;;;;15.14;89.72;101775.47;5061332;28;20092;-70
2022/05/18 02:25:07;;;;;;;13.27;6.70;;;;;;;15.12;89.35;101781.06;5040464;28;20041;-70
2022/05/18 02:27:33;;;;;;;11.10;7.03;;;;;;;15.13;89.65;101773.84;5061212;28;20121;-70
2022/05/18 02:29:59;;;;;;;11.63;7.43;;;;;;;15.08;89.09;101762.88;5059343;28;20029;-70
2022/05/18 02:32:25;;;;;;;10.68;6.70;;;;;;;15.13;90.17;101777.34;5058537;28;20029;-70
2022/05/18 02:34:51;;;;;;;12.15;6.47;;;;;;;15.11;90.36;101760.59;5060833;28;20507;-70
2022/05/18 02:37:17;;;;;;;9.55;6.93;;;;;;;15.11;88.88;101773.22;5063207;28;20060;-70
2022/05/18 02:39:42;;;;;;;12.73;6.72;;;;;;;15.12;90.01;101777.56;5061955;28;20048;-70
2022/05/18 02:42:08;;;;;;;12.07;6.43;;;;;;;15.11;89.77;101765.97;5058912;28;20032;-70
2022/05/18 02:44:33;;;;;;;15.20;7.25;;;;;;;15.08;88.98;101757.50;5057037;28;20056;-70
2022/05/18 02:46:59;;;;;;;12.93;7.93;;;;;;;15.11;90.30;101765.16;5040902;28;20064;-70
2022/05/18 02:49:26;;;;;;;16.10;7.50;;;;;;;15.13;90.61;101768.47;5058220;28;20036;-70
2022/05/18 02:51:51;;;;;;;14.38;7.25;;;;;;;15.11;89.40;101765.16;5058346;28;20029;-70
2022/05/18 02:57:03;;;;;;;14.70;7.07;;;;;;;15.15;90.89;101765.59;5056962;28;20455;-70
2022/05/18 02:59:29;;;;;;;14.90;7.70;;;;;;;15.19;90.60;101769.50;5056746;28;20025;-70
2022/05/18 03:01:54;;;;;;;13.52;6.88;;;;;;;15.23;90.40;101773.44;5059839;28;20116;-70
2022/05/18 03:04:20;;;;;;;14.40;8.30;;;;;;;15.23;89.88;101774.28;5056391;28;20032;-70
2022/05/18 03:06:45;;;;;;;12.18;7.70;;;;;;;15.23;89.95;101766.22;5057331;28;20543;-70
2022/05/18 03:09:11;;;;;;;13.75;6.90;;;;;;;15.23;90.25;101770.75;5060018;28;20069;-70
2022/05/18 03:11:36;;;;;;;11.60;6.97;;;;;;;15.31;90.28;101782.13;5060053;28;20605;-70
2022/05/18 03:14:02;;;;;;;17.17;7.45;;;;;;;15.37;90.02;101775.09;5055071;28;20125;-70
2022/05/18 03:16:29;;;;;;;10.90;6.72;;;;;;;15.42;89.79;101785.25;5056469;28;20032;-70
2022/05/18 03:18:55;;;;;;;12.18;6.78;;;;;;;15.45;89.72;101774.91;5059316;28;20920;-70
2022/05/18 03:24:04;;;;;;;13.43;7.57;;;;;;;15.48;89.45;101771.81;5059638;28;20039;-70
2022/05/18 03:26:29;;;;;;;11.50;7.50;;;;;;;15.50;89.08;101777.78;5060630;28;20415;-70
2022/05/18 03:28:56;;;;;;;15.23;7.03;;;;;;;15.54;88.92;101786.28;5062907;28;20081;-69
2022/05/18 03:31:23;;;;;;;13.52;7.57;;;;;;;15.62;88.35;101793.34;5041145;28;20041;-69
2022/05/18 03:33:49;;;;;;;17.58;7.55;;;;;;;15.66;88.00;101803.44;5062570;28;20060;-70
2022/05/18 03:36:17;;;;;;;18.25;8.65;;;;;;;15.69;87.95;101803.09;5062391;28;20028;-70
2022/05/18 03:38:44;;;;;;;14.45;7.78;;;;;;;15.73;88.10;101807.00;5062913;28;20549;-70
2022/05/18 03:41:10;;;;;;;22.35;9.10;;;;;;;15.74;87.95;101800.56;5065257;28;20032;-70
2022/05/18 03:43:36;;;;;;;18.13;9.30;;;;;;;15.77;87.86;101812.78;5060855;28;20055;-70
2022/05/18 03:46:02;;;;;;;17.70;8.45;;;;;;;15.78;87.96;101815.28;5062660;28;20039;-70
2022/05/18 03:48:28;;;;;;;16.75;8.52;;;;;;;15.81;87.88;101818.59;5061953;28;20032;-70
2022/05/18 03:50:57;;;;;;;17.52;8.52;;;;;;;15.80;87.82;101809.69;5062860;28;20340;-70
2022/05/18 03:53:22;;;;;;;16.60;8.38;;;;;;;15.84;87.96;101815.47;5063029;28;20067;-70
2022/05/18 03:55:48;;;;;;;19.40;9.30;;;;;;;15.86;88.06;101814.25;5062843;28;20452;-70
2022/05/18 03:58:14;;;;;;;16.65;9.35;;;;;;;15.86;88.28;101822.31;5066513;28;20143;-70
2022/05/18 04:00:41;;;;;;;16.45;7.95;;;;;;;15.89;87.98;101821.88;5061779;28;20553;-70
2022/05/18 04:03:08;;;;;;;15.93;8.57;;;;;;;15.93;87.76;101822.31;5061049;28;20060;-70
2022/05/18 04:05:37;;;;;;;18.00;8.57;;;;;;;15.95;87.63;101812.16;5057760;28;20119;-70
2022/05/18 04:08:03;;;;;;;16.42;8.15;;;;;;;15.96;87.64;101824.59;5062636;28;20063;-70
2022/05/18 04:10:28;;;;;;;15.52;8.82;;;;;;;15.93;87.58;101817.75;5061823;28;20230;-67
2022/05/18 04:12:53;;;;;;;19.20;10.18;;;;;;;15.98;87.43;101822.50;5052238;28;20037;-67
2022/05/18 04:15:19;;;;;;;14.57;9.68;;;;;;;16.03;87.01;101836.16;5052361;28;20025;-67
2022/05/18 04:17:46;;;;;;;16.38;8.80;;;;;;;16.03;87.46;101829.94;5052133;28;20555;-67
2022/05/18 04:20:13;;;;;;;14.70;8.82;;;;;;;16.05;87.34;101835.94;5052166;28;20123;-67
2022/05/18 04:22:39;;;;;;;17.52;9.60;;;;;;;16.04;87.17;101824.38;5052025;28;20032;-67
2022/05/18 04:25:05;;;;;;;15.50;8.38;;;;;;;16.08;86.91;101822.91;5052117;28;20021;-67
2022/05/18 04:27:31;;;;;;;16.95;9.48;;;;;;;16.10;86.81;101828.91;5051961;28;20060;-67
2022/05/18 04:29:57;;;;;;;16.17;9.48;;;;;;;16.13;86.66;101820.41;5051743;28;20079;-67
2022/05/18 04:32:23;;;;;;;17.05;9.90;;;;;;;16.16;86.69;101819.97;5071060;28;20032;-67
2022/05/18 04:34:49;;;;;;;12.75;8.50;;;;;;;16.21;86.86;101824.75;5070699;28;20024;-67
2022/05/18 04:37:15;;;;;;;16.25;8.95;;;;;;;16.23;87.21;101821.84;5070648;28;20111;-67
2022/05/18 04:39:41;;;;;;;16.73;9.77;;;;;;;16.33;86.28;101827.63;5070939;28;20036;-68
2022/05/18 04:42:07;;;;;;;16.45;8.23;;;;;;;16.40;85.87;101829.28;5070841;28;20039;-67
2022/05/18 04:44:32;;;;;;;15.68;7.80;;;;;;;16.58;85.39;101836.69;5052495;28;20460;-67
2022/05/18 04:46:58;;;;;;;13.18;8.20;;;;;;;16.81;84.30;101829.97;5065036;28;20028;-69
2022/05/18 04:49:25;;;;;;;14.52;8.25;;;;;;;17.10;83.15;101836.66;5062729;28;20043;-69
2022/05/18 04:51:50;;;;;;;19.15;9.82;;;;;;;17.40;82.07;101834.22;5061293;28;20031;-70
2022/05/18 04:54:15;;;;;;;15.15;8.38;;;;;;;17.85;80.40;101834.09;5041557;28;20404;-70
2022/05/18 04:56:41;;;;;;;17.38;8.52;;;;;;;18.02;79.74;101828.94;5059696;28;20051;-70
2022/05/18 04:59:06;;;;;;;11.50;8.00;;;;;;;18.06;79.11;101834.75;5060206;28;20025;-70
2022/05/18 05:01:34;;;;;;;16.55;8.48;;;;;;;18.14;78.26;101829.06;5063436;28;20036;-70
2022/05/18 05:03:59;;;;;;;16.70;9.18;;;;;;;18.26;78.15;101837.22;5060483;28;20059;-70
2022/05/18 05:06:25;;;;;;;12.75;7.47;;;;;;;18.33;77.47;101846.09;5062518;28;20028;-70
2022/05/18 05:08:50;;;;;;;17.85;9.63;;;;;;;18.40;76.18;101850.38;5062735;28;20032;-70
2022/05/18 05:11:15;;;;;;;13.05;8.20;;;;;;;18.45;76.26;101857.00;5062888;28;20056;-70
2022/05/18 05:13:41;;;;;;;13.93;7.20;;;;;;;18.47;76.26;101857.59;5058510;28;20037;-70
2022/05/18 05:16:09;;;;;;;13.73;7.65;;;;;;;18.42;75.44;101857.44;5058922;28;20023;-70
2022/05/18 05:18:36;;;;;;;14.52;8.80;;;;;;;18.45;76.03;101870.50;5061331;28;20365;-70
2022/05/18 05:21:01;;;;;;;13.15;8.18;;;;;;;18.40;75.76;101876.56;5063580;28;20029;-70
2022/05/18 05:23:28;;;;;;;14.13;8.63;;;;;;;18.35;75.47;101874.53;5061437;28;20029;-70
2022/05/18 05:25:55;;;;;;;16.73;8.77;;;;;;;18.32;76.46;101872.28;5061985;28;20507;-70
2022/05/18 05:28:21;;;;;;;18.02;8.13;;;;;;;18.35;76.26;101873.72;5059064;28;20090;-71
2022/05/18 05:30:46;;;;;;;15.45;8.18;;;;;;;18.44;76.34;101871.53;5058559;28;20536;-70
2022/05/18 05:33:12;;;;;;;14.38;7.38;;;;;;;18.58;76.27;101873.88;5063701;28;20115;-70
2022/05/18 05:35:42;;;;;;;15.48;8.60;;;;;;;18.68;75.49;101870.66;5061940;28;20138;-70
2022/05/18 05:38:11;;;;;;;14.48;8.35;;;;;;;18.83;74.75;101875.69;5060602;28;20033;-70
2022/05/18 05:40:38;;;;;;;14.85;8.20;;;;;;;19.02;75.22;101876.50;5059752;28;20406;-70
2022/05/18 05:43:08;;;;;;;10.55;7.28;;;;;;;19.19;73.95;101877.53;5056649;28;20029;-70
2022/05/18 05:45:33;;;;;;;14.18;8.32;;;;;;;19.37;72.48;101876.66;5057400;28;20051;-70
2022/05/18 05:47:59;;;;;;;14.65;8.52;;;;;;;19.52;73.28;101884.38;5059708;28;20476;-70
2022/05/18 05:50:25;;;;;;;13.68;7.25;;;;;;;19.61;72.10;101882.94;5063379;28;20067;-71
2022/05/18 05:52:51;;;;;;;12.55;6.80;;;;;;;19.66;70.94;101883.13;5060198;28;20028;-70
2022/05/18 05:55:17;;;;;;;14.88;7.68;;;;;;;19.67;70.04;101882.06;5059625;28;20032;-70
2022/05/18 05:57:42;;;;;;;15.88;8.18;;;;;;;19.64;70.33;101889.78;5059073;28;20036;-70
2022/05/18 06:00:08;;;;;;;8.52;5.90;;;;;;;19.60;70.71;101894.03;5043438;28;20110;-70
2022/05/18 06:02:33;;;;;;;12.32;6.38;;;;;;;19.57;70.33;101894.47;5061574;28;20037;-71
2022/05/18 06:04:59;;;;;;;11.32;6.85;;;;;;;19.51;69.75;101893.50;5060295;28;20490;-70
2022/05/18 06:07:24;;;;;;;11.50;6.78;;;;;;;19.53;70.44;101907.66;5058605;28;20033;-70
2022/05/18 06:09:49;;;;;;;13.95;7.82;;;;;;;19.55;71.11;101902.00;5060765;28;20132;-70
2022/05/18 06:12:15;;;;;;;13.05;6.68;;;;;;;19.60;71.25;101904.84;5059968;28;20106;-71
2022/05/18 06:14:44;;;;;;;12.15;6.13;;;;;;;19.60;70.49;101891.31;5060996;28;20036;-71
2022/05/18 06:17:09;;;;;;;11.60;6.47;;;;;;;19.72;71.53;101910.31;5059352;28;20033;-71
2022/05/18 06:19:35;;;;;;;11.07;6.38;;;;;;;19.80;71.03;101915.38;5058088;28;20036;-71
2022/05/18 06:22:01;;;;;;;10.00;5.50;;;;;;;19.86;69.53;101922.59;5060337;28;20024;-71
2022/05/18 06:24:26;;;;;;;14.40;7.03;;;;;;;19.95;69.41;101921.19;5061524;28;20465;-71
2022/05/18 06:26:55;;;;;;;10.27;5.43;;;;;;;20.06;70.63;101911.44;5058270;28;20040;-71
2022/05/18 06:29:21;;;;;;;8.65;5.65;;;;;;;20.17;68.34;101909.78;5058283;28;20025;-70
2022/05/18 06:31:46;;;;;;;13.70;6.07;;;;;;;20.23;68.50;101917.00;5059359;28;20096;-71
2022/05/18 06:34:12;;;;;;;11.40;6.35;;;;;;;20.33;69.62;101914.50;5059349;28;20106;-71
2022/05/18 06:36:37;;;;;;;9.25;5.53;;;;;;;20.35;68.66;101907.78;5057441;28;20031;-71
2022/05/18 06:39:04;;;;;;;14.00;6.22;;;;;;;20.41;68.13;101916.88;5059738;28;20135;-70
2022/05/18 06:41:30;;;;;;;16.00;6.00;;;;;;;20.40;67.99;101920.63;5061435;28;20039;-70
2022/05/18 06:44:00;;;;;;;19.80;6.93;;;;;;;20.43;66.92;101924.75;5056812;28;20060;-70
2022/05/18 06:46:27;;;;;;;12.27;5.68;;;;;;;20.43;66.65;101933.69;5060481;28;20036;-70
2022/05/18 06:48:55;;;;;;;18.23;8.13;;;;;;;20.45;66.28;101931.59;5055696;28;20033;-70
2022/05/18 06:51:25;;;;;;;9.93;5.68;;;;;;;20.46;66.49;101933.25;5062026;28;20406;-71
2022/05/18 06:53:52;;;;;;;11.48;5.85;;;;;;;20.47;67.81;101934.88;5061325;28;20028;-71
2022/05/18 06:56:19;;;;;;;14.43;6.50;;;;;;;20.49;67.67;101938.19;5061040;28;20025;-71
2022/05/18 06:58:47;;;;;;;18.80;5.55;;;;;;;20.52;67.42;101945.03;5049506;28;20052;-67
2022/05/18 07:01:12;;;;;;;14.25;6.30;;;;;;;20.57;67.83;101943.28;5053221;28;20119;-67
2022/05/18 07:03:37;;;;;;;8.45;5.32;;;;;;;20.67;66.73;101941.84;5072733;28;20038;-68
2022/05/18 07:06:04;;;;;;;11.18;5.72;;;;;;;20.73;66.70;101951.75;5072710;28;20111;-68
2022/05/18 07:08:29;;;;;;;9.45;6.68;;;;;;;20.84;66.82;101942.78;5072848;28;20032;-67
2022/05/18 07:10:54;;;;;;;10.02;5.45;;;;;;;20.92;66.64;101939.69;5072641;28;20082;-67
2022/05/18 07:13:20;;;;;;;12.60;6.72;;;;;;;20.96;65.84;101942.78;5072553;28;20079;-67
2022/05/18 07:15:45;;;;;;;12.05;6.70;;;;;;;21.00;66.45;101944.75;5072444;28;20033;-67
2022/05/18 07:18:11;;;;;;;13.43;6.53;;;;;;;21.05;65.52;101945.94;5072485;28;20032;-71
2022/05/18 07:20:37;;;;;;;11.30;6.80;;;;;;;21.06;64.61;101961.13;5072312;28;20111;-67
2022/05/18 07:23:02;;;;;;;12.63;6.22;;;;;;;21.07;64.43;101954.66;5054079;28;20128;-67
2022/05/18 07:25:28;;;;;;;15.25;7.10;;;;;;;21.06;63.85;101955.69;5072295;28;20031;-67
2022/05/18 07:27:53;;;;;;;11.15;5.93;;;;;;;21.11;63.93;101956.63;5072178;28;20578;-67
2022/05/18 07:30:18;;;;;;;12.70;7.07;;;;;;;21.12;62.67;101961.00;5072283;28;20075;-66
2022/05/18 07:32:44;;;;;;;14.25;6.18;;;;;;;21.12;62.70;101966.44;5072874;28;20388;-67
2022/05/18 07:35:09;;;;;;;13.43;6.93;;;;;;;21.06;61.06;101955.69;5072204;28;20158;-67
2022/05/18 07:37:34;;;;;;;15.85;7.22;;;;;;;21.17;61.53;101980.09;5072078;28;20036;-68
2022/05/18 07:40:00;;;;;;;16.52;7.68;;;;;;;21.26;61.46;101977.81;5072064;28;20028;-67
2022/05/18 07:42:26;;;;;;;11.35;6.32;;;;;;;21.33;60.84;101975.00;5071937;28;20028;-68
2022/05/18 07:44:51;;;;;;;13.82;7.30;;;;;;;21.48;62.49;101974.47;5071715;28;20060;-67
2022/05/18 07:47:17;;;;;;;16.45;7.63;;;;;;;21.63;61.14;101975.59;5071845;28;20045;-68
2022/05/18 07:49:42;;;;;;;15.73;8.35;;;;;;;21.66;61.50;101963.41;5071813;28;20028;-68
2022/05/18 07:52:09;;;;;;;13.43;8.57;;;;;;;21.81;62.49;101980.00;5071898;28;20403;-67
2022/05/18 07:54:34;;;;;;;16.10;9.93;;;;;;;21.93;60.45;101971.78;5071602;28;20024;-68
2022/05/18 07:57:00;;;;;;;19.58;9.80;;;;;;;21.97;60.88;101977.53;5071822;28;20032;-69
2022/05/18 07:59:26;;;;;;;16.50;9.05;;;;;;;22.01;61.60;101976.00;5071727;28;20032;-68
2022/05/18 08:01:51;;;;;;;25.20;11.10;;;;;;;22.23;61.03;101968.78;5071588;28;20032;-68
2022/05/18 08:04:17;;;;;;;19.48;8.48;;;;;;;22.49;60.12;101974.59;5071641;28;20029;-67
2022/05/18 08:06:43;;;;;;;17.90;8.25;;;;;;;22.63;60.46;101988.66;5071441;28;20056;-68
2022/05/18 08:09:09;;;;;;;15.40;7.70;;;;;;;24.01;57.03;101983.00;5071562;28;20367;-68
2022/05/18 08:17:03;;;;;;;15.93;7.50;;;;;;;27.30;47.10;101980.72;5071683;28;20594;-68
2022/05/18 08:19:29;;;;;;;9.75;5.85;;;;;;;28.13;46.33;101975.47;5061336;28;20037;-68
2022/05/18 08:21:55;;;;;;;14.15;5.97;;;;;;;29.25;42.99;101976.22;5052214;28;20098;-68
2022/05/18 08:24:20;;;;;;;13.35;6.25;;;;;;;30.22;42.46;101974.69;5052152;28;20111;-68
2022/05/18 08:26:47;;;;;;;13.20;6.03;;;;;;;29.71;41.53;101972.78;5052150;28;20032;-68
2022/05/18 08:29:12;;;;;;;11.80;6.93;;;;;;;28.81;43.42;101980.84;5052137;28;20909;-68
2022/05/18 08:31:37;;;;;;;15.40;5.68;;;;;;;28.30;44.18;101981.38;5051889;28;20113;-68
2022/05/18 08:34:03;;;;;;;17.80;6.72;;;;;;;29.05;43.28;101974.53;5051903;28;20476;-68
2022/05/18 08:36:31;;;;;;;12.07;4.90;;;;;;;29.87;41.32;101968.69;5051807;28;20025;-68
2022/05/18 08:38:56;;;;;;;10.30;5.13;;;;;;;30.49;40.66;101973.94;5051830;28;20035;-68
2022/05/18 08:41:26;;;;;;;10.32;5.50;;;;;;;30.94;39.31;101976.13;5051861;28;20037;-68
2022/05/18 08:43:58;;;;;;;12.75;5.43;;;;;;;31.25;39.28;101956.16;5051645;28;20057;-68
2022/05/18 08:46:43;;;;;;;9.80;5.38;;;;;;;31.95;40.47;101974.94;5051692;28;20394;-68
2022/05/18 08:49:36;;;;;;;10.60;5.03;;;;;;;32.40;37.89;101980.38;5051574;28;20021;-68
2022/05/18 08:52:11;;;;;;;8.75;4.40;;;;;;;32.66;37.30;101977.75;5042529;28;20041;-72
2022/05/18 08:54:51;;;;;;;10.40;4.63;;;;;;;32.19;36.51;101985.66;5061101;28;20112;-72
2022/05/18 08:57:26;;;;;;;11.10;5.15;;;;;;;30.78;39.39;101989.34;5062310;28;20025;-72
2022/05/18 08:59:56;;;;;;;11.15;5.35;;;;;;;29.38;41.46;101988.41;5060858;28;20024;-72
2022/05/18 09:02:26;;;;;;;9.35;4.20;;;;;;;28.29;42.88;101985.19;5064254;28;20111;-72
2022/05/18 09:04:56;;;;;;;8.90;4.72;;;;;;;27.51;46.01;101995.09;5060752;28;20016;-73
2022/05/18 09:07:27;;;;;;;11.80;5.50;;;;;;;26.96;47.32;101986.03;5063074;28;20044;-72
2022/05/18 09:10:13;;;;;;;8.60;4.53;;;;;;;26.55;48.96;101985.34;5062309;28;20103;-72
2022/05/18 09:12:44;;;;;;;9.32;5.32;;;;;;;26.22;49.48;101990.25;5056865;28;20055;-72
2022/05/18 09:15:17;;;;;;;9.88;4.38;;;;;;;26.01;50.02;101981.22;5057947;28;20043;-72
2022/05/18 09:17:56;;;;;;;10.80;5.82;;;;;;;25.98;50.88;101979.06;5058556;28;20655;-72
2022/05/18 09:20:45;;;;;;;12.10;5.30;;;;;;;25.93;51.27;101990.78;5060408;28;20530;-72
2022/05/18 09:23:28;;;;;;;8.93;4.65;;;;;;;25.77;51.49;101984.47;5063939;28;20025;-72
2022/05/18 09:26:15;;;;;;;8.85;4.38;;;;;;;25.59;51.03;101990.44;5060433;28;20029;-72
2022/05/18 09:28:59;;;;;;;13.48;5.97;;;;;;;25.53;52.16;101984.16;5057259;28;20071;-72
2022/05/18 09:31:45;;;;;;;9.30;4.20;;;;;;;25.59;52.81;101983.06;5062188;28;20032;-72
2022/05/18 09:34:29;;;;;;;13.55;6.30;;;;;;;25.48;51.90;101986.88;5063225;28;20074;-72
2022/05/18 09:37:20;;;;;;;11.82;6.18;;;;;;;25.43;52.77;101981.41;5059436;28;20032;-72
2022/05/18 09:39:53;;;;;;;7.65;5.35;;;;;;;25.49;53.45;101983.06;5054570;28;20044;-72
2022/05/18 09:42:23;;;;;;;9.52;5.30;;;;;;;25.61;52.68;101982.81;5058762;28;20044;-72
2022/05/18 09:45:06;;;;;;;9.82;4.47;;;;;;;25.79;52.88;101985.03;5062152;28;20049;-72
2022/05/18 09:47:39;;;;;;;8.98;4.50;;;;;;;25.82;53.87;101980.91;5061492;28;20025;-72
2022/05/18 09:50:08;;;;;;;8.95;3.80;;;;;;;25.71;50.92;101990.22;5057202;28;20050;-72
2022/05/18 09:52:37;;;;;;;9.35;4.97;;;;;;;25.72;51.74;101995.38;5058441;28;20043;-72
2022/05/18 09:55:06;;;;;;;11.82;4.80;;;;;;;25.82;51.52;101988.31;5059983;28;20024;-72
2022/05/18 09:57:38;;;;;;;6.30;3.97;;;;;;;25.91;50.46;101989.44;5060603;28;20036;-74
2022/05/18 10:00:10;;;;;;;8.55;4.45;;;;;;;26.06;51.59;101992.16;5072304;28;20024;-68
2022/05/18 10:08:19;;;;;;;9.68;5.20;;;;;;;26.02;51.15;101980.16;5064540;28;20039;-75
2022/05/18 10:10:45;;;;;;;11.15;5.18;;;;;;;25.86;51.40;101981.22;5060083;28;20063;-72
2022/05/18 10:13:16;;;;;;;10.85;5.05;;;;;;;25.88;53.16;101987.25;5059576;28;20040;-72
2022/05/18 10:15:44;;;;;;;10.75;4.97;;;;;;;25.89;51.83;101994.38;5062311;28;20028;-72
2022/05/18 10:18:23;;;;;;;12.48;4.72;;;;;;;25.78;52.35;101993.47;5059512;28;20059;-72
2022/05/18 10:21:03;;;;;;;29.67;5.80;;;;;;;25.75;51.63;101986.66;5054087;28;20020;-72
2022/05/18 10:23:32;;;;;;;8.57;3.80;;;;;;;25.92;51.14;101980.97;5056782;28;20055;-72
2022/05/18 10:25:57;;;;;;;8.85;3.70;;;;;;;26.24;52.01;101974.41;5056284;28;20450;-72
2022/05/18 10:28:26;;;;;;;21.58;6.18;;;;;;;26.31;48.36;101976.88;5057666;28;20111;-72
2022/05/18 10:31:03;;;;;;;9.45;4.60;;;;;;;26.22;49.87;101977.38;5059519;28;20491;-72
2022/05/18 10:33:38;;;;;;;8.63;4.32;;;;;;;26.22;50.47;101984.78;5059222;28;20411;-72
2022/05/18 10:36:14;;;;;;;8.40;5.47;;;;;;;26.24;49.99;101972.47;5061998;28;20020;-72
2022/05/18 10:38:54;;;;;;;11.27;5.47;;;;;;;26.34;49.94;101979.03;5051989;28;20028;-72
2022/05/18 10:41:26;;;;;;;9.60;5.60;;;;;;;26.34;49.75;101979.84;5054278;28;20032;-72
2022/05/18 10:43:54;;;;;;;13.70;6.43;;;;;;;26.42;51.68;101979.28;5056346;28;20087;-72
2022/05/18 10:46:29;;;;;;;9.52;6.00;;;;;;;26.51;50.73;101978.72;5059359;28;20080;-72
2022/05/18 10:49:04;;;;;;;8.73;4.50;;;;;;;26.47;50.29;101973.00;5054516;28;20423;-72
2022/05/18 10:51:50;;;;;;;7.15;4.53;;;;;;;26.35;49.55;101967.81;5060657;28;20036;-73
2022/05/18 10:54:27;;;;;;;11.48;4.75;;;;;;;26.27;49.95;101973.84;5042154;28;20361;-72
2022/05/18 10:57:15;;;;;;;7.72;4.35;;;;;;;26.36;50.14;101966.72;5042817;28;20524;-72
2022/05/18 10:59:43;;;;;;;9.30;4.65;;;;;;;26.34;49.70;101959.91;5056134;28;20021;-72
2022/05/18 11:02:16;;;;;;;9.60;6.40;;;;;;;26.29;50.90;101959.91;5058371;28;20112;-72
2022/05/18 11:05:04;;;;;;;10.15;4.22;;;;;;;26.35;50.13;101958.78;5056317;28;20064;-72
2022/05/18 11:07:30;;;;;;;6.22;4.18;;;;;;;26.48;49.01;101965.59;5065341;28;20107;-73
2022/05/18 11:09:57;;;;;;;6.78;4.32;;;;;;;26.55;48.65;101961.53;5064865;28;20044;-73
2022/05/18 11:12:34;;;;;;;12.65;4.65;;;;;;;26.73;49.28;101967.50;5045662;28;20073;-72
2022/05/18 11:15:05;;;;;;;7.28;3.38;;;;;;;26.78;49.17;101959.28;5059338;28;20452;-72
2022/05/18 11:17:52;;;;;;;4.03;3.30;;;;;;;26.90;49.71;101962.50;5056452;28;20033;-73
2022/05/18 11:20:48;;;;;;;6.63;3.80;;;;;;;26.99;49.12;101960.84;5059699;28;20492;-73
2022/05/18 11:23:44;;;;;;;6.28;4.18;;;;;;;27.03;47.93;101961.88;5060880;28;20029;-72
2022/05/18 11:26:39;;;;;;;8.60;3.33;;;;;;;26.89;48.79;101941.69;5057257;28;20121;-73
2022/05/18 11:29:29;;;;;;;6.35;3.33;;;;;;;26.97;48.31;101954.00;5057511;28;20152;-72
2022/05/18 11:32:10;;;;;;;5.82;3.17;;;;;;;26.97;49.38;101963.03;5059124;28;20084;-72
2022/05/18 11:35:01;;;;;;;5.22;2.88;;;;;;;26.97;49.13;101956.72;5055745;28;20182;-75
2022/05/18 11:37:41;;;;;;;5.95;3.13;;;;;;;26.95;48.55;101954.25;5058124;28;20020;-72
2022/05/18 11:40:18;;;;;;;6.25;3.03;;;;;;;26.93;48.73;101956.44;5057701;28;20036;-72
2022/05/18 11:43:01;;;;;;;4.28;3.50;;;;;;;26.88;47.91;101949.09;5060357;28;20059;-67
2022/05/18 11:45:47;;;;;;;8.23;3.63;;;;;;;26.86;47.90;101945.00;5068006;28;20059;-68
2022/05/18 11:48:31;;;;;;;6.20;4.13;;;;;;;26.94;47.67;101951.81;5070118;28;20380;-68